sensor_id;sensor_type;location;lat;lon;timestamp;noise_LAeq;noise_LA_min;noise_LA_max;noise_LA01;noise_LA95
76100;Laerm;64828;49.956;8.636;2023-05-21T00:00:06;38.76;33.81;51.12;;
76100;Laerm;64828;49.956;8.636;2023-05-21T00:00:25;35.84;33.95;38.59;;
76100;Laerm;64828;49.956;8.636;2023-05-21T00:00:41;35.98;34.25;37.75;;
76100;Laerm;64828;49.956;8.636;2023-05-21T00:00:57;35.52;33.83;38.09;;
76100;Laerm;64828;49.956;8.636;2023-05-21T00:01:12;35.88;33.95;38.21;;
76100;Laerm;64828;49.956;8.636;2023-05-21T00:01:30;36.67;34.30;40.87;;
76100;Laerm;64828;49.956;8.636;2023-05-21T00:01:46;41.53;35.33;49.12;;
76100;Laerm;64828;49.956;8.636;2023-05-21T00:02:03;41.68;36.25;46.12;;
76100;Laerm;64828;49.956;8.636;2023-05-21T00:02:18;38.68;35.51;42.07;;
76100;Laerm;64828;49.956;8.636;2023-05-21T00:02:34;39.34;36.02;43.34;;
76100;Laerm;64828;49.956;8.636;2023-05-21T00:02:50;40.20;36.46;45.48;;
76100;Laerm;64828;49.956;8.636;2023-05-21T00:03:05;39.64;36.51;47.69;;
76100;Laerm;64828;49.956;8.636;2023-05-21T00:03:28;41.14;35.48;52.63;;
76100;Laerm;64828;49.956;8.636;2023-05-21T00:03:45;36.72;34.50;41.96;;
76100;Laerm;64828;49.956;8.636;2023-05-21T00:04:00;37.39;35.11;41.53;;
76100;Laerm;64828;49.956;8.636;2023-05-21T00:04:16;37.65;35.01;42.30;;
76100;Laerm;64828;49.956;8.636;2023-05-21T00:04:32;36.82;34.78;41.11;;
76100;Laerm;64828;49.956;8.636;2023-05-21T00:04:48;37.26;34.67;47.51;;
76100;Laerm;64828;49.956;8.636;2023-05-21T00:05:04;36.39;34.37;43.27;;
76100;Laerm;64828;49.956;8.636;2023-05-21T00:05:20;36.25;34.28;40.46;;
76100;Laerm;64828;49.956;8.636;2023-05-21T00:05:35;36.04;34.40;44.32;;
76100;Laerm;64828;49.956;8.636;2023-05-21T00:05:51;36.04;33.81;44.13;;
76100;Laerm;64828;49.956;8.636;2023-05-21T00:06:07;35.72;33.75;38.71;;
76100;Laerm;64828;49.956;8.636;2023-05-21T00:06:23;35.59;33.82;38.87;;
76100;Laerm;64828;49.956;8.636;2023-05-21T00:06:38;36.00;33.88;43.37;;
76100;Laerm;64828;49.956;8.636;2023-05-21T00:06:54;35.44;33.57;37.48;;
76100;Laerm;64828;49.956;8.636;2023-05-21T00:07:10;38.00;34.16;49.28;;
76100;Laerm;64828;49.956;8.636;2023-05-21T00:07:27;36.13;33.82;44.80;;
76100;Laerm;64828;49.956;8.636;2023-05-21T00:07:43;35.52;33.91;39.81;;
76100;Laerm;64828;49.956;8.636;2023-05-21T00:08:00;36.26;33.67;44.93;;
76100;Laerm;64828;49.956;8.636;2023-05-21T00:08:15;35.54;33.58;37.58;;
76100;Laerm;64828;49.956;8.636;2023-05-21T00:08:31;38.24;34.46;46.97;;
76100;Laerm;64828;49.956;8.636;2023-05-21T00:08:48;37.00;33.72;41.86;;
76100;Laerm;64828;49.956;8.636;2023-05-21T00:09:05;37.50;33.95;42.42;;
76100;Laerm;64828;49.956;8.636;2023-05-21T00:09:21;36.71;34.10;42.89;;
76100;Laerm;64828;49.956;8.636;2023-05-21T00:09:37;36.20;33.70;44.96;;
76100;Laerm;64828;49.956;8.636;2023-05-21T00:09:52;35.36;33.67;37.24;;
76100;Laerm;64828;49.956;8.636;2023-05-21T00:10:09;35.44;33.70;38.22;;
76100;Laerm;64828;49.956;8.636;2023-05-21T00:10:24;35.46;33.61;37.77;;
76100;Laerm;64828;49.956;8.636;2023-05-21T00:10:40;35.62;34.04;37.41;;
76100;Laerm;64828;49.956;8.636;2023-05-21T00:10:56;35.29;33.71;37.28;;
76100;Laerm;64828;49.956;8.636;2023-05-21T00:11:12;35.17;33.76;37.18;;
76100;Laerm;64828;49.956;8.636;2023-05-21T00:11:27;35.28;33.66;39.59;;
76100;Laerm;64828;49.956;8.636;2023-05-21T00:11:43;37.49;34.00;51.82;;
76100;Laerm;64828;49.956;8.636;2023-05-21T00:11:59;35.27;33.70;37.95;;
76100;Laerm;64828;49.956;8.636;2023-05-21T00:12:15;35.03;33.69;36.54;;
76100;Laerm;64828;49.956;8.636;2023-05-21T00:12:30;35.87;33.65;45.33;;
76100;Laerm;64828;49.956;8.636;2023-05-21T00:12:46;37.19;33.69;49.24;;
76100;Laerm;64828;49.956;8.636;2023-05-21T00:13:02;35.62;33.75;42.67;;
76100;Laerm;64828;49.956;8.636;2023-05-21T00:13:17;34.95;33.27;36.57;;
76100;Laerm;64828;49.956;8.636;2023-05-21T00:13:33;34.93;33.43;36.56;;
76100;Laerm;64828;49.956;8.636;2023-05-21T00:13:49;35.08;33.52;37.02;;
76100;Laerm;64828;49.956;8.636;2023-05-21T00:14:04;35.13;33.71;36.69;;
76100;Laerm;64828;49.956;8.636;2023-05-21T00:14:20;35.01;33.44;36.93;;
76100;Laerm;64828;49.956;8.636;2023-05-21T00:14:36;35.15;33.58;36.95;;
76100;Laerm;64828;49.956;8.636;2023-05-21T00:14:51;35.30;33.68;37.79;;
76100;Laerm;64828;49.956;8.636;2023-05-21T00:15:07;35.13;33.57;38.05;;
76100;Laerm;64828;49.956;8.636;2023-05-21T00:15:23;35.09;33.47;37.13;;
76100;Laerm;64828;49.956;8.636;2023-05-21T00:15:39;34.82;33.26;36.70;;
76100;Laerm;64828;49.956;8.636;2023-05-21T00:15:54;34.73;33.40;36.66;;
76100;Laerm;64828;49.956;8.636;2023-05-21T00:16:10;34.82;33.25;36.91;;
76100;Laerm;64828;49.956;8.636;2023-05-21T00:16:26;35.01;33.50;36.58;;
76100;Laerm;64828;49.956;8.636;2023-05-21T00:16:41;37.14;33.61;49.99;;
76100;Laerm;64828;49.956;8.636;2023-05-21T00:16:59;37.52;33.67;51.18;;
76100;Laerm;64828;49.956;8.636;2023-05-21T00:17:14;36.63;33.82;42.11;;
76100;Laerm;64828;49.956;8.636;2023-05-21T00:17:30;40.40;35.33;50.37;;
76100;Laerm;64828;49.956;8.636;2023-05-21T00:17:47;40.78;36.62;45.64;;
76100;Laerm;64828;49.956;8.636;2023-05-21T00:18:03;39.73;35.41;44.29;;
76100;Laerm;64828;49.956;8.636;2023-05-21T00:18:18;37.58;34.54;42.07;;
76100;Laerm;64828;49.956;8.636;2023-05-21T00:18:34;35.86;33.92;37.87;;
76100;Laerm;64828;49.956;8.636;2023-05-21T00:18:50;35.84;34.02;42.62;;
76100;Laerm;64828;49.956;8.636;2023-05-21T00:19:05;36.35;34.22;47.72;;
76100;Laerm;64828;49.956;8.636;2023-05-21T00:19:22;38.08;33.86;48.73;;
76100;Laerm;64828;49.956;8.636;2023-05-21T00:19:37;35.52;33.54;40.51;;
76100;Laerm;64828;49.956;8.636;2023-05-21T00:19:54;35.25;33.76;40.06;;
76100;Laerm;64828;49.956;8.636;2023-05-21T00:20:11;40.70;33.94;53.64;;
76100;Laerm;64828;49.956;8.636;2023-05-21T00:20:27;35.42;33.60;38.04;;
76100;Laerm;64828;49.956;8.636;2023-05-21T00:20:43;35.38;33.47;39.56;;
76100;Laerm;64828;49.956;8.636;2023-05-21T00:21:00;35.22;33.47;43.14;;
76100;Laerm;64828;49.956;8.636;2023-05-21T00:21:16;35.17;33.64;39.77;;
76100;Laerm;64828;49.956;8.636;2023-05-21T00:21:36;42.16;33.63;55.32;;
76100;Laerm;64828;49.956;8.636;2023-05-21T00:21:52;35.23;33.62;36.98;;
76100;Laerm;64828;49.956;8.636;2023-05-21T00:22:09;37.79;33.94;48.19;;
76100;Laerm;64828;49.956;8.636;2023-05-21T00:22:24;36.32;34.21;38.05;;
76100;Laerm;64828;49.956;8.636;2023-05-21T00:22:40;36.30;34.38;39.56;;
76100;Laerm;64828;49.956;8.636;2023-05-21T00:22:58;36.37;34.29;38.07;;
76100;Laerm;64828;49.956;8.636;2023-05-21T00:23:17;37.37;33.99;46.78;;
76100;Laerm;64828;49.956;8.636;2023-05-21T00:23:32;38.22;34.07;49.97;;
76100;Laerm;64828;49.956;8.636;2023-05-21T00:23:48;37.74;34.88;47.79;;
76100;Laerm;64828;49.956;8.636;2023-05-21T00:24:05;36.77;34.58;43.07;;
76100;Laerm;64828;49.956;8.636;2023-05-21T00:24:21;35.98;34.14;38.16;;
76100;Laerm;64828;49.956;8.636;2023-05-21T00:24:36;36.49;34.38;42.01;;
76100;Laerm;64828;49.956;8.636;2023-05-21T00:24:52;36.25;34.19;42.69;;
76100;Laerm;64828;49.956;8.636;2023-05-21T00:25:09;37.71;34.11;50.79;;
76100;Laerm;64828;49.956;8.636;2023-05-21T00:25:25;37.25;34.45;44.59;;
76100;Laerm;64828;49.956;8.636;2023-05-21T00:25:41;36.19;34.16;39.90;;
76100;Laerm;64828;49.956;8.636;2023-05-21T00:25:57;35.93;33.46;42.01;;
76100;Laerm;64828;49.956;8.636;2023-05-21T00:26:13;36.78;33.65;53.93;;
76100;Laerm;64828;49.956;8.636;2023-05-21T00:26:29;36.58;33.90;51.48;;
76100;Laerm;64828;49.956;8.636;2023-05-21T00:26:44;36.03;34.01;46.82;;
76100;Laerm;64828;49.956;8.636;2023-05-21T00:27:00;37.87;34.07;48.21;;
76100;Laerm;64828;49.956;8.636;2023-05-21T00:27:16;40.36;34.19;55.42;;
76100;Laerm;64828;49.956;8.636;2023-05-21T00:27:31;36.30;33.86;45.12;;
76100;Laerm;64828;49.956;8.636;2023-05-21T00:27:47;35.96;33.63;44.88;;
76100;Laerm;64828;49.956;8.636;2023-05-21T00:28:03;35.35;33.73;39.51;;
76100;Laerm;64828;49.956;8.636;2023-05-21T00:28:19;35.52;33.75;44.59;;
76100;Laerm;64828;49.956;8.636;2023-05-21T00:28:34;35.22;33.65;37.76;;
76100;Laerm;64828;49.956;8.636;2023-05-21T00:28:50;36.32;34.03;42.27;;
76100;Laerm;64828;49.956;8.636;2023-05-21T00:29:06;36.00;33.99;41.10;;
76100;Laerm;64828;49.956;8.636;2023-05-21T00:29:21;40.68;35.80;45.39;;
76100;Laerm;64828;49.956;8.636;2023-05-21T00:29:37;41.82;37.63;48.49;;
76100;Laerm;64828;49.956;8.636;2023-05-21T00:29:53;40.37;36.06;49.43;;
76100;Laerm;64828;49.956;8.636;2023-05-21T00:30:09;36.90;34.03;40.63;;
76100;Laerm;64828;49.956;8.636;2023-05-21T00:30:25;39.70;33.75;53.76;;
76100;Laerm;64828;49.956;8.636;2023-05-21T00:30:40;35.85;33.90;38.82;;
76100;Laerm;64828;49.956;8.636;2023-05-21T00:30:57;35.42;33.81;37.46;;
76100;Laerm;64828;49.956;8.636;2023-05-21T00:31:12;37.48;33.38;53.33;;
76100;Laerm;64828;49.956;8.636;2023-05-21T00:31:28;35.09;33.75;36.95;;
76100;Laerm;64828;49.956;8.636;2023-05-21T00:31:44;36.98;33.31;53.84;;
76100;Laerm;64828;49.956;8.636;2023-05-21T00:32:00;35.17;33.54;37.15;;
76100;Laerm;64828;49.956;8.636;2023-05-21T00:32:15;35.31;33.65;43.53;;
76100;Laerm;64828;49.956;8.636;2023-05-21T00:32:31;34.66;33.38;36.49;;
76100;Laerm;64828;49.956;8.636;2023-05-21T00:32:47;34.79;33.21;36.37;;
76100;Laerm;64828;49.956;8.636;2023-05-21T00:33:02;35.11;33.41;39.85;;
76100;Laerm;64828;49.956;8.636;2023-05-21T00:33:18;35.17;33.53;38.48;;
76100;Laerm;64828;49.956;8.636;2023-05-21T00:33:36;35.35;33.58;42.62;;
76100;Laerm;64828;49.956;8.636;2023-05-21T00:33:51;36.13;33.80;44.26;;
76100;Laerm;64828;49.956;8.636;2023-05-21T00:34:07;36.69;33.53;50.21;;
76100;Laerm;64828;49.956;8.636;2023-05-21T00:34:23;37.40;33.78;46.93;;
76100;Laerm;64828;49.956;8.636;2023-05-21T00:34:38;35.34;33.38;40.14;;
76100;Laerm;64828;49.956;8.636;2023-05-21T00:34:54;36.69;33.92;45.70;;
76100;Laerm;64828;49.956;8.636;2023-05-21T00:35:10;37.03;34.44;42.03;;
76100;Laerm;64828;49.956;8.636;2023-05-21T00:35:25;37.41;34.06;45.30;;
76100;Laerm;64828;49.956;8.636;2023-05-21T00:35:41;36.73;33.79;44.57;;
76100;Laerm;64828;49.956;8.636;2023-05-21T00:35:56;35.50;33.76;40.74;;
76100;Laerm;64828;49.956;8.636;2023-05-21T00:36:12;39.56;33.62;54.65;;
76100;Laerm;64828;49.956;8.636;2023-05-21T00:36:28;46.42;34.32;57.80;;
76100;Laerm;64828;49.956;8.636;2023-05-21T00:36:45;38.27;34.02;47.98;;
76100;Laerm;64828;49.956;8.636;2023-05-21T00:37:01;38.85;33.83;51.14;;
76100;Laerm;64828;49.956;8.636;2023-05-21T00:37:17;35.59;33.43;44.34;;
76100;Laerm;64828;49.956;8.636;2023-05-21T00:37:32;35.59;33.50;42.62;;
76100;Laerm;64828;49.956;8.636;2023-05-21T00:37:48;35.66;33.99;39.60;;
76100;Laerm;64828;49.956;8.636;2023-05-21T00:38:04;36.02;33.80;40.91;;
76100;Laerm;64828;49.956;8.636;2023-05-21T00:38:22;36.24;33.89;41.96;;
76100;Laerm;64828;49.956;8.636;2023-05-21T00:38:38;36.70;34.30;42.09;;
76100;Laerm;64828;49.956;8.636;2023-05-21T00:38:53;39.69;34.63;52.99;;
76100;Laerm;64828;49.956;8.636;2023-05-21T00:39:09;39.79;35.43;51.06;;
76100;Laerm;64828;49.956;8.636;2023-05-21T00:39:24;39.30;35.02;46.03;;
76100;Laerm;64828;49.956;8.636;2023-05-21T00:39:41;38.66;34.09;49.00;;
76100;Laerm;64828;49.956;8.636;2023-05-21T00:39:56;44.20;34.72;58.05;;
76100;Laerm;64828;49.956;8.636;2023-05-21T00:40:12;46.01;34.34;63.10;;
76100;Laerm;64828;49.956;8.636;2023-05-21T00:40:29;46.46;34.12;66.60;;
76100;Laerm;64828;49.956;8.636;2023-05-21T00:40:45;36.13;33.95;42.84;;
76100;Laerm;64828;49.956;8.636;2023-05-21T00:41:03;37.47;33.58;49.19;;
76100;Laerm;64828;49.956;8.636;2023-05-21T00:41:19;37.89;33.99;46.65;;
76100;Laerm;64828;49.956;8.636;2023-05-21T00:41:37;37.69;34.18;48.14;;
76100;Laerm;64828;49.956;8.636;2023-05-21T00:41:54;36.76;33.90;41.74;;
76100;Laerm;64828;49.956;8.636;2023-05-21T00:42:11;42.45;33.65;57.60;;
76100;Laerm;64828;49.956;8.636;2023-05-21T00:42:27;37.50;34.09;44.45;;
76100;Laerm;64828;49.956;8.636;2023-05-21T00:42:44;40.43;33.94;54.67;;
76100;Laerm;64828;49.956;8.636;2023-05-21T00:43:02;41.24;34.88;59.99;;
76100;Laerm;64828;49.956;8.636;2023-05-21T00:43:17;35.78;33.69;44.10;;
76100;Laerm;64828;49.956;8.636;2023-05-21T00:43:33;35.44;33.38;38.90;;
76100;Laerm;64828;49.956;8.636;2023-05-21T00:43:49;36.44;33.90;45.49;;
76100;Laerm;64828;49.956;8.636;2023-05-21T00:44:08;36.63;33.81;49.54;;
76100;Laerm;64828;49.956;8.636;2023-05-21T00:44:24;38.59;34.28;47.85;;
76100;Laerm;64828;49.956;8.636;2023-05-21T00:44:39;42.23;33.99;56.12;;
76100;Laerm;64828;49.956;8.636;2023-05-21T00:44:56;35.77;33.63;44.58;;
76100;Laerm;64828;49.956;8.636;2023-05-21T00:45:12;37.31;33.85;45.96;;
76100;Laerm;64828;49.956;8.636;2023-05-21T00:45:29;37.70;33.82;45.21;;
76100;Laerm;64828;49.956;8.636;2023-05-21T00:45:44;39.25;34.50;46.55;;
76100;Laerm;64828;49.956;8.636;2023-05-21T00:46:01;41.05;34.07;61.10;;
76100;Laerm;64828;49.956;8.636;2023-05-21T00:46:19;46.26;34.10;61.07;;
76100;Laerm;64828;49.956;8.636;2023-05-21T00:46:35;38.15;33.84;45.63;;
76100;Laerm;64828;49.956;8.636;2023-05-21T00:46:51;42.60;34.22;54.35;;
76100;Laerm;64828;49.956;8.636;2023-05-21T00:47:12;36.88;33.83;43.35;;
76100;Laerm;64828;49.956;8.636;2023-05-21T00:47:28;37.11;33.96;42.07;;
76100;Laerm;64828;49.956;8.636;2023-05-21T00:47:44;36.08;33.92;42.51;;
76100;Laerm;64828;49.956;8.636;2023-05-21T00:48:03;35.72;33.64;43.87;;
76100;Laerm;64828;49.956;8.636;2023-05-21T00:48:22;35.99;33.70;43.38;;
76100;Laerm;64828;49.956;8.636;2023-05-21T00:48:38;37.76;34.07;43.05;;
76100;Laerm;64828;49.956;8.636;2023-05-21T00:48:54;41.06;34.28;51.43;;
76100;Laerm;64828;49.956;8.636;2023-05-21T00:49:12;36.91;34.33;43.50;;
76100;Laerm;64828;49.956;8.636;2023-05-21T00:49:30;38.15;34.21;51.34;;
76100;Laerm;64828;49.956;8.636;2023-05-21T00:49:47;39.60;34.85;48.94;;
76100;Laerm;64828;49.956;8.636;2023-05-21T00:50:04;39.91;35.32;45.38;;
76100;Laerm;64828;49.956;8.636;2023-05-21T00:50:21;38.20;34.29;43.46;;
76100;Laerm;64828;49.956;8.636;2023-05-21T00:50:38;37.18;34.44;42.33;;
76100;Laerm;64828;49.956;8.636;2023-05-21T00:50:55;38.12;33.98;46.94;;
76100;Laerm;64828;49.956;8.636;2023-05-21T00:51:13;36.38;33.65;41.00;;
76100;Laerm;64828;49.956;8.636;2023-05-21T00:51:29;37.36;34.57;44.52;;
76100;Laerm;64828;49.956;8.636;2023-05-21T00:51:44;41.71;37.52;50.33;;
76100;Laerm;64828;49.956;8.636;2023-05-21T00:52:00;42.70;40.11;45.17;;
76100;Laerm;64828;49.956;8.636;2023-05-21T00:52:16;45.48;41.64;47.69;;
76100;Laerm;64828;49.956;8.636;2023-05-21T00:52:34;47.72;44.15;52.31;;
76100;Laerm;64828;49.956;8.636;2023-05-21T00:52:56;48.83;45.53;53.73;;
76100;Laerm;64828;49.956;8.636;2023-05-21T00:53:12;52.11;48.32;56.75;;
76100;Laerm;64828;49.956;8.636;2023-05-21T00:53:29;51.16;48.03;55.54;;
76100;Laerm;64828;49.956;8.636;2023-05-21T00:53:49;56.37;47.02;63.19;;
76100;Laerm;64828;49.956;8.636;2023-05-21T00:54:05;60.45;56.80;64.06;;
76100;Laerm;64828;49.956;8.636;2023-05-21T00:54:23;60.95;53.06;67.14;;
76100;Laerm;64828;49.956;8.636;2023-05-21T00:54:39;63.01;54.33;68.59;;
76100;Laerm;64828;49.956;8.636;2023-05-21T00:54:55;64.53;59.59;69.50;;
76100;Laerm;64828;49.956;8.636;2023-05-21T00:55:11;61.66;50.20;67.80;;
76100;Laerm;64828;49.956;8.636;2023-05-21T00:55:27;49.99;40.05;58.55;;
76100;Laerm;64828;49.956;8.636;2023-05-21T00:55:43;39.56;35.09;44.90;;
76100;Laerm;64828;49.956;8.636;2023-05-21T00:55:58;37.23;34.66;46.08;;
76100;Laerm;64828;49.956;8.636;2023-05-21T00:56:14;37.14;34.28;49.81;;
76100;Laerm;64828;49.956;8.636;2023-05-21T00:56:30;36.51;33.99;42.66;;
76100;Laerm;64828;49.956;8.636;2023-05-21T00:56:47;37.10;34.43;44.56;;
76100;Laerm;64828;49.956;8.636;2023-05-21T00:57:03;36.31;34.14;41.48;;
76100;Laerm;64828;49.956;8.636;2023-05-21T00:57:21;36.05;33.47;41.11;;
76100;Laerm;64828;49.956;8.636;2023-05-21T00:57:38;35.50;33.91;38.32;;
76100;Laerm;64828;49.956;8.636;2023-05-21T00:57:54;35.75;34.04;40.67;;
76100;Laerm;64828;49.956;8.636;2023-05-21T00:58:10;36.16;33.75;42.15;;
76100;Laerm;64828;49.956;8.636;2023-05-21T00:58:26;36.01;34.34;40.41;;
76100;Laerm;64828;49.956;8.636;2023-05-21T00:58:42;35.74;33.94;43.03;;
76100;Laerm;64828;49.956;8.636;2023-05-21T00:58:58;35.56;33.70;39.77;;
76100;Laerm;64828;49.956;8.636;2023-05-21T00:59:17;37.00;34.01;46.47;;
76100;Laerm;64828;49.956;8.636;2023-05-21T00:59:33;36.28;34.11;41.00;;
76100;Laerm;64828;49.956;8.636;2023-05-21T00:59:51;35.64;33.68;40.10;;
76100;Laerm;64828;49.956;8.636;2023-05-21T01:00:08;35.37;33.63;40.88;;
76100;Laerm;64828;49.956;8.636;2023-05-21T01:00:25;36.18;33.89;40.68;;
76100;Laerm;64828;49.956;8.636;2023-05-21T01:00:41;38.92;34.77;47.87;;
76100;Laerm;64828;49.956;8.636;2023-05-21T01:00:57;38.18;35.66;50.10;;
76100;Laerm;64828;49.956;8.636;2023-05-21T01:01:13;36.96;33.97;50.57;;
76100;Laerm;64828;49.956;8.636;2023-05-21T01:01:28;36.94;34.03;53.43;;
76100;Laerm;64828;49.956;8.636;2023-05-21T01:01:48;37.67;34.25;48.50;;
76100;Laerm;64828;49.956;8.636;2023-05-21T01:02:10;38.76;34.25;49.77;;
76100;Laerm;64828;49.956;8.636;2023-05-21T01:02:28;35.81;33.85;41.44;;
76100;Laerm;64828;49.956;8.636;2023-05-21T01:02:47;49.35;34.52;69.23;;
76100;Laerm;64828;49.956;8.636;2023-05-21T01:03:05;39.85;34.98;48.39;;
76100;Laerm;64828;49.956;8.636;2023-05-21T01:03:21;39.95;35.39;54.85;;
76100;Laerm;64828;49.956;8.636;2023-05-21T01:03:37;38.19;34.80;44.07;;
76100;Laerm;64828;49.956;8.636;2023-05-21T01:03:53;37.96;33.92;44.10;;
76100;Laerm;64828;49.956;8.636;2023-05-21T01:04:11;36.41;33.94;46.36;;
76100;Laerm;64828;49.956;8.636;2023-05-21T01:04:28;35.40;33.06;41.98;;
76100;Laerm;64828;49.956;8.636;2023-05-21T01:04:44;37.17;33.29;48.89;;
76100;Laerm;64828;49.956;8.636;2023-05-21T01:05:00;36.95;33.81;44.74;;
76100;Laerm;64828;49.956;8.636;2023-05-21T01:05:16;36.30;33.74;41.27;;
76100;Laerm;64828;49.956;8.636;2023-05-21T01:05:32;35.96;33.20;42.16;;
76100;Laerm;64828;49.956;8.636;2023-05-21T01:05:50;35.41;33.47;39.13;;
76100;Laerm;64828;49.956;8.636;2023-05-21T01:06:10;36.70;33.29;44.89;;
76100;Laerm;64828;49.956;8.636;2023-05-21T01:06:26;36.81;34.02;44.40;;
76100;Laerm;64828;49.956;8.636;2023-05-21T01:06:41;36.05;33.72;41.81;;
76100;Laerm;64828;49.956;8.636;2023-05-21T01:06:57;35.97;33.92;44.92;;
76100;Laerm;64828;49.956;8.636;2023-05-21T01:07:13;35.56;33.55;40.78;;
76100;Laerm;64828;49.956;8.636;2023-05-21T01:07:28;35.38;33.49;39.39;;
76100;Laerm;64828;49.956;8.636;2023-05-21T01:07:45;44.30;33.90;58.54;;
76100;Laerm;64828;49.956;8.636;2023-05-21T01:08:02;35.94;33.32;43.48;;
76100;Laerm;64828;49.956;8.636;2023-05-21T01:08:19;36.05;33.46;44.34;;
76100;Laerm;64828;49.956;8.636;2023-05-21T01:08:37;35.24;33.37;39.40;;
76100;Laerm;64828;49.956;8.636;2023-05-21T01:08:57;35.86;33.48;46.59;;
76100;Laerm;64828;49.956;8.636;2023-05-21T01:09:13;35.14;33.58;37.57;;
76100;Laerm;64828;49.956;8.636;2023-05-21T01:09:28;40.11;33.44;50.82;;
76100;Laerm;64828;49.956;8.636;2023-05-21T01:09:44;45.46;34.33;59.58;;
76100;Laerm;64828;49.956;8.636;2023-05-21T01:10:03;38.23;34.05;51.98;;
76100;Laerm;64828;49.956;8.636;2023-05-21T01:10:19;39.23;34.00;52.90;;
76100;Laerm;64828;49.956;8.636;2023-05-21T01:10:35;35.84;33.52;41.67;;
76100;Laerm;64828;49.956;8.636;2023-05-21T01:10:51;36.04;33.80;41.85;;
76100;Laerm;64828;49.956;8.636;2023-05-21T01:11:09;41.77;33.95;54.60;;
76100;Laerm;64828;49.956;8.636;2023-05-21T01:11:40;36.03;33.41;44.88;;
76100;Laerm;64828;49.956;8.636;2023-05-21T01:11:57;35.95;33.72;41.34;;
76100;Laerm;64828;49.956;8.636;2023-05-21T01:12:16;37.76;34.01;54.77;;
76100;Laerm;64828;49.956;8.636;2023-05-21T01:12:34;38.48;33.94;50.75;;
76100;Laerm;64828;49.956;8.636;2023-05-21T01:12:51;44.43;34.17;61.49;;
76100;Laerm;64828;49.956;8.636;2023-05-21T01:13:07;36.09;34.09;39.73;;
76100;Laerm;64828;49.956;8.636;2023-05-21T01:13:24;36.36;34.11;41.45;;
76100;Laerm;64828;49.956;8.636;2023-05-21T01:13:41;36.24;33.96;42.29;;
76100;Laerm;64828;49.956;8.636;2023-05-21T01:13:58;36.68;34.06;43.63;;
76100;Laerm;64828;49.956;8.636;2023-05-21T01:14:15;38.18;33.41;47.09;;
76100;Laerm;64828;49.956;8.636;2023-05-21T01:14:33;37.65;33.66;46.02;;
76100;Laerm;64828;49.956;8.636;2023-05-21T01:14:49;36.62;33.47;47.05;;
76100;Laerm;64828;49.956;8.636;2023-05-21T01:15:06;38.60;34.05;47.42;;
76100;Laerm;64828;49.956;8.636;2023-05-21T01:15:23;44.04;37.04;51.82;;
76100;Laerm;64828;49.956;8.636;2023-05-21T01:15:41;48.08;40.86;53.51;;
76100;Laerm;64828;49.956;8.636;2023-05-21T01:15:58;46.56;40.03;58.06;;
76100;Laerm;64828;49.956;8.636;2023-05-21T01:16:14;44.10;37.94;49.62;;
76100;Laerm;64828;49.956;8.636;2023-05-21T01:16:32;40.99;36.85;48.48;;
76100;Laerm;64828;49.956;8.636;2023-05-21T01:16:48;39.20;35.60;44.22;;
76100;Laerm;64828;49.956;8.636;2023-05-21T01:17:05;36.65;34.25;40.71;;
76100;Laerm;64828;49.956;8.636;2023-05-21T01:17:27;36.68;34.07;42.27;;
76100;Laerm;64828;49.956;8.636;2023-05-21T01:17:44;39.08;34.06;47.60;;
76100;Laerm;64828;49.956;8.636;2023-05-21T01:18:00;37.15;33.92;43.31;;
76100;Laerm;64828;49.956;8.636;2023-05-21T01:18:16;36.51;33.98;45.59;;
76100;Laerm;64828;49.956;8.636;2023-05-21T01:18:35;36.76;33.54;42.67;;
76100;Laerm;64828;49.956;8.636;2023-05-21T01:18:51;36.08;33.59;41.85;;
76100;Laerm;64828;49.956;8.636;2023-05-21T01:19:13;35.61;33.59;40.15;;
76100;Laerm;64828;49.956;8.636;2023-05-21T01:19:29;35.75;33.32;43.34;;
76100;Laerm;64828;49.956;8.636;2023-05-21T01:19:47;36.16;33.44;47.83;;
76100;Laerm;64828;49.956;8.636;2023-05-21T01:20:05;36.76;33.52;49.30;;
76100;Laerm;64828;49.956;8.636;2023-05-21T01:20:25;35.96;33.39;43.21;;
76100;Laerm;64828;49.956;8.636;2023-05-21T01:20:41;36.09;33.65;43.93;;
76100;Laerm;64828;49.956;8.636;2023-05-21T01:21:03;37.15;33.76;48.81;;
76100;Laerm;64828;49.956;8.636;2023-05-21T01:21:23;35.77;33.39;47.22;;
76100;Laerm;64828;49.956;8.636;2023-05-21T01:21:44;35.55;33.63;41.72;;
76100;Laerm;64828;49.956;8.636;2023-05-21T01:22:05;36.53;33.54;43.37;;
76100;Laerm;64828;49.956;8.636;2023-05-21T01:22:22;36.39;33.98;45.99;;
76100;Laerm;64828;49.956;8.636;2023-05-21T01:22:53;36.29;34.05;41.22;;
76100;Laerm;64828;49.956;8.636;2023-05-21T01:23:09;37.46;33.97;46.88;;
76100;Laerm;64828;49.956;8.636;2023-05-21T01:23:25;37.40;34.39;45.15;;
76100;Laerm;64828;49.956;8.636;2023-05-21T01:23:41;37.25;34.34;44.07;;
76100;Laerm;64828;49.956;8.636;2023-05-21T01:23:56;38.81;34.88;49.00;;
76100;Laerm;64828;49.956;8.636;2023-05-21T01:24:14;43.42;36.99;59.76;;
76100;Laerm;64828;49.956;8.636;2023-05-21T01:24:30;41.08;37.13;46.92;;
76100;Laerm;64828;49.956;8.636;2023-05-21T01:24:49;42.37;39.27;49.60;;
76100;Laerm;64828;49.956;8.636;2023-05-21T01:25:05;40.47;36.50;47.49;;
76100;Laerm;64828;49.956;8.636;2023-05-21T01:25:22;39.99;36.51;45.94;;
76100;Laerm;64828;49.956;8.636;2023-05-21T01:25:37;40.29;36.79;52.59;;
76100;Laerm;64828;49.956;8.636;2023-05-21T01:25:53;39.21;36.11;43.45;;
76100;Laerm;64828;49.956;8.636;2023-05-21T01:26:08;42.52;35.38;54.80;;
76100;Laerm;64828;49.956;8.636;2023-05-21T01:26:27;38.69;35.08;47.50;;
76100;Laerm;64828;49.956;8.636;2023-05-21T01:26:43;37.41;34.20;42.77;;
76100;Laerm;64828;49.956;8.636;2023-05-21T01:27:02;36.86;33.74;47.46;;
76100;Laerm;64828;49.956;8.636;2023-05-21T01:27:20;36.04;33.87;41.38;;
76100;Laerm;64828;49.956;8.636;2023-05-21T01:27:37;36.19;33.80;42.03;;
76100;Laerm;64828;49.956;8.636;2023-05-21T01:27:52;36.41;33.85;44.56;;
76100;Laerm;64828;49.956;8.636;2023-05-21T01:28:08;36.70;34.13;40.92;;
76100;Laerm;64828;49.956;8.636;2023-05-21T01:28:23;36.76;33.79;43.39;;
76100;Laerm;64828;49.956;8.636;2023-05-21T01:28:39;36.17;34.38;40.56;;
76100;Laerm;64828;49.956;8.636;2023-05-21T01:28:55;36.13;34.12;39.61;;
76100;Laerm;64828;49.956;8.636;2023-05-21T01:29:11;36.22;34.11;41.18;;
76100;Laerm;64828;49.956;8.636;2023-05-21T01:29:27;41.19;34.32;55.38;;
76100;Laerm;64828;49.956;8.636;2023-05-21T01:29:43;39.02;34.10;49.56;;
76100;Laerm;64828;49.956;8.636;2023-05-21T01:29:58;35.84;33.61;44.75;;
76100;Laerm;64828;49.956;8.636;2023-05-21T01:30:17;35.43;33.54;41.21;;
76100;Laerm;64828;49.956;8.636;2023-05-21T01:30:35;35.46;33.75;39.35;;
76100;Laerm;64828;49.956;8.636;2023-05-21T01:30:52;36.08;33.51;43.80;;
76100;Laerm;64828;49.956;8.636;2023-05-21T01:31:24;38.59;34.11;50.05;;
76100;Laerm;64828;49.956;8.636;2023-05-21T01:32:03;35.94;33.42;44.53;;
76100;Laerm;64828;49.956;8.636;2023-05-21T01:32:56;35.81;33.19;45.50;;
76100;Laerm;64828;49.956;8.636;2023-05-21T01:33:51;36.34;33.23;50.80;;
76100;Laerm;64828;49.956;8.636;2023-05-21T01:34:12;35.84;33.61;45.66;;
76100;Laerm;64828;49.956;8.636;2023-05-21T01:34:46;37.00;33.82;47.91;;
76100;Laerm;64828;49.956;8.636;2023-05-21T01:35:13;39.93;34.01;56.18;;
76100;Laerm;64828;49.956;8.636;2023-05-21T01:35:34;35.48;33.45;42.04;;